Time;durP1;ratioP1;P1;durP2;ratioP2;P2;SDS_P1;SDS_P2;PMS_P1;PMS_P2;Temp;Humidity;BMP_temperature;BMP_pressure;BME280_temperature;BME280_humidity;BME280_pressure;Samples;Min_cycle;Max_cycle;Signal;HPM_P1;HPM_P2
2023/09/06 00:00:42;;;;;;;7.63;5.43;;;20.60;99.90;;;;;;5031645;28;20036;-63
2023/09/06 00:03:23;;;;;;;7.18;5.07;;;20.60;99.90;;;;;;5048711;28;20044;-63
2023/09/06 00:06:10;;;;;;;5.90;5.22;;;20.50;99.90;;;;;;5048825;28;20068;-64
2023/09/06 00:08:50;;;;;;;7.80;6.18;;;20.50;99.90;;;;;;5048930;28;20114;-63
2023/09/06 00:11:39;;;;;;;6.35;5.20;;;20.50;99.90;;;;;;5049002;28;20450;-63
2023/09/06 00:14:20;;;;;;;7.50;5.95;;;20.50;99.90;;;;;;5041653;28;20120;-64
2023/09/06 00:17:06;;;;;;;6.80;6.07;;;20.40;99.90;;;;;;5049897;28;20052;-64
2023/09/06 00:19:45;;;;;;;7.57;5.88;;;20.40;99.90;;;;;;5023277;28;20137;-64
2023/09/06 00:22:32;;;;;;;7.95;5.97;;;20.40;99.90;;;;;;5048387;28;20063;-64
2023/09/06 00:25:11;;;;;;;6.30;5.68;;;20.40;99.90;;;;;;5049333;28;20053;-64
2023/09/06 00:28:00;;;;;;;8.13;6.20;;;20.30;99.90;;;;;;5049037;28;20800;-64
2023/09/06 00:30:44;;;;;;;6.53;5.40;;;20.20;99.90;;;;;;5048356;28;20049;-64
2023/09/06 00:33:35;;;;;;;;;;;20.20;99.90;;;;;;5053167;28;20071;-65
2023/09/06 00:36:14;;;;;;;6.13;5.53;;;20.10;99.90;;;;;;5052744;28;19931;-64
2023/09/06 00:39:02;;;;;;;7.38;5.38;;;20.00;99.90;;;;;;5052422;28;20068;-64
2023/09/06 00:41:44;;;;;;;6.78;5.50;;;20.10;99.90;;;;;;5052900;28;20064;-64
2023/09/06 00:44:37;;;;;;;;;;;20.00;99.90;;;;;;5055043;27;20059;-64
2023/09/06 00:47:24;;;;;;;8.10;5.75;;;20.00;99.90;;;;;;5052851;28;19931;-64
2023/09/06 00:50:04;;;;;;;7.45;6.05;;;20.00;99.90;;;;;;5052914;28;20573;-63
2023/09/06 00:52:51;;;;;;;6.55;5.82;;;20.00;99.90;;;;;;5052731;28;20044;-64
2023/09/06 00:55:31;;;;;;;7.03;6.28;;;19.90;99.90;;;;;;5053005;28;20102;-63
2023/09/06 00:58:19;;;;;;;10.05;6.05;;;19.90;99.90;;;;;;5052198;28;20060;-64
2023/09/06 01:01:00;;;;;;;8.55;6.07;;;19.90;99.90;;;;;;5052192;28;20102;-63
2023/09/06 01:03:46;;;;;;;8.23;5.93;;;19.80;99.90;;;;;;5051440;28;20492;-63
2023/09/06 01:06:32;;;;;;;6.53;5.28;;;19.80;99.90;;;;;;5052438;28;20186;-63
2023/09/06 01:09:19;;;;;;;6.38;5.40;;;19.80;99.90;;;;;;5051727;28;20045;-63
2023/09/06 01:11:59;;;;;;;8.35;6.28;;;19.70;99.90;;;;;;5051970;28;20056;-64
2023/09/06 01:14:45;;;;;;;7.03;5.65;;;19.80;99.90;;;;;;5051852;28;20060;-62
2023/09/06 01:17:25;;;;;;;6.95;5.95;;;19.70;99.90;;;;;;5044939;28;20412;-63
2023/09/06 01:20:43;;;;;;;6.82;5.88;;;19.70;99.90;;;;;;5051257;28;20667;-64
2023/09/06 01:23:44;;;;;;;8.20;6.00;;;19.70;99.90;;;;;;5030824;28;20041;-63
2023/09/06 01:26:32;;;;;;;;;;;19.70;99.90;;;;;;5052162;28;20056;-63
2023/09/06 01:29:11;;;;;;;7.93;5.80;;;19.60;99.90;;;;;;5051493;28;19925;-63
2023/09/06 01:31:58;;;;;;;7.28;5.80;;;19.50;99.90;;;;;;5051140;28;20049;-64
2023/09/06 01:34:37;;;;;;;8.93;5.90;;;19.40;99.90;;;;;;5051718;28;20370;-63
2023/09/06 01:37:24;;;;;;;8.50;5.88;;;19.50;99.90;;;;;;5051164;28;20060;-64
2023/09/06 01:40:12;;;;;;;6.35;5.53;;;19.50;99.90;;;;;;5050984;28;20057;-64
2023/09/06 01:42:58;;;;;;;;;;;19.40;99.90;;;;;;5050953;28;20655;-64
2023/09/06 01:45:38;;;;;;;7.65;5.72;;;19.30;99.90;;;;;;5052922;27;20008;-64
2023/09/06 01:48:25;;;;;;;6.57;5.90;;;19.30;99.90;;;;;;5051328;28;20056;-64
2023/09/06 01:51:07;;;;;;;6.80;5.85;;;19.30;99.90;;;;;;5051219;28;20438;-64
2023/09/06 01:53:54;;;;;;;7.15;6.00;;;19.30;99.90;;;;;;5050466;28;20063;-63
2023/09/06 01:56:33;;;;;;;8.02;6.35;;;19.20;99.90;;;;;;5051327;28;20382;-64
2023/09/06 01:59:20;;;;;;;8.00;6.32;;;19.10;99.90;;;;;;5050327;28;20212;-64
2023/09/06 02:01:59;;;;;;;6.43;5.78;;;19.10;99.90;;;;;;5050442;28;20525;-64
2023/09/06 02:04:46;;;;;;;8.57;6.00;;;19.00;99.90;;;;;;5051128;28;20079;-63
2023/09/06 02:07:26;;;;;;;7.53;6.32;;;19.00;99.90;;;;;;5050452;28;20377;-63
2023/09/06 02:10:12;;;;;;;7.25;5.90;;;19.00;99.90;;;;;;5051063;28;20049;-64
2023/09/06 02:12:51;;;;;;;9.15;5.72;;;19.00;99.90;;;;;;5050980;28;20398;-64
2023/09/06 02:15:38;;;;;;;7.53;6.13;;;19.00;99.90;;;;;;5050713;28;20235;-63
2023/09/06 02:18:17;;;;;;;8.65;6.07;;;19.00;99.90;;;;;;5050932;28;20049;-64
2023/09/06 02:21:04;;;;;;;8.05;6.50;;;19.00;99.90;;;;;;5049914;28;20060;-63
2023/09/06 02:23:44;;;;;;;7.70;5.85;;;19.00;99.90;;;;;;5050197;28;20523;-64
2023/09/06 02:26:30;;;;;;;6.47;5.88;;;19.00;99.90;;;;;;5028763;28;20068;-64
2023/09/06 02:29:11;;;;;;;7.18;5.85;;;18.90;99.90;;;;;;5050189;28;20049;-64
2023/09/06 02:31:57;;;;;;;7.50;5.93;;;19.00;99.90;;;;;;5050900;28;20052;-63
2023/09/06 02:34:36;;;;;;;7.18;5.85;;;18.90;99.90;;;;;;5030870;28;20057;-64
2023/09/06 02:37:23;;;;;;;7.57;5.93;;;18.90;99.90;;;;;;5030276;28;20049;-63
2023/09/06 02:40:12;;;;;;;6.28;5.68;;;18.90;99.90;;;;;;5030698;28;20046;-64
2023/09/06 02:42:57;;;;;;;;;;;18.90;99.90;;;;;;5039613;28;20473;-64
2023/09/06 02:45:37;;;;;;;6.03;5.43;;;18.90;99.90;;;;;;5052142;28;19931;-64
2023/09/06 02:48:24;;;;;;;6.32;5.47;;;18.90;99.90;;;;;;5043357;28;20044;-64
2023/09/06 02:51:08;;;;;;;8.48;5.65;;;18.90;99.90;;;;;;5050489;28;20044;-64
2023/09/06 02:53:56;;;;;;;7.93;5.72;;;18.90;99.90;;;;;;5049395;28;20045;-64
2023/09/06 02:56:37;;;;;;;6.53;5.47;;;18.90;99.90;;;;;;5051062;28;20122;-64
2023/09/06 02:59:23;;;;;;;7.32;6.38;;;18.90;99.90;;;;;;5050262;28;20075;-63
2023/09/06 03:02:05;;;;;;;7.00;5.93;;;18.80;99.90;;;;;;5050672;28;20118;-63
2023/09/06 03:04:55;;;;;;;9.85;6.20;;;18.80;99.90;;;;;;5030356;28;20290;-62
2023/09/06 03:07:36;;;;;;;6.50;5.80;;;18.80;99.90;;;;;;5030385;28;20053;-64
2023/09/06 03:10:23;;;;;;;9.40;6.20;;;18.70;99.90;;;;;;5029837;28;20136;-63
2023/09/06 03:13:05;;;;;;;10.05;6.30;;;18.60;99.90;;;;;;5038919;28;20044;-63
2023/09/06 03:15:51;;;;;;;7.68;6.10;;;18.50;99.90;;;;;;5050001;28;20076;-64
2023/09/06 03:18:30;;;;;;;7.60;6.32;;;18.50;99.90;;;;;;5049828;28;20052;-63
2023/09/06 03:21:18;;;;;;;8.57;6.10;;;18.50;99.90;;;;;;5049639;28;20314;-64
2023/09/06 03:23:59;;;;;;;8.05;6.50;;;18.50;99.90;;;;;;5049817;28;20048;-64
2023/09/06 03:26:45;;;;;;;8.50;6.88;;;18.50;99.90;;;;;;5049729;28;20060;-64
2023/09/06 03:29:27;;;;;;;7.90;6.63;;;18.50;99.90;;;;;;5049770;28;20041;-63
2023/09/06 03:32:13;;;;;;;8.23;6.57;;;18.40;99.90;;;;;;5049868;28;20049;-63
2023/09/06 03:34:54;;;;;;;7.13;6.43;;;18.40;99.90;;;;;;5049524;28;20049;-64
2023/09/06 03:37:41;;;;;;;9.18;6.47;;;18.40;99.90;;;;;;5049814;28;20067;-63
2023/09/06 03:40:36;;;;;;;8.98;7.45;;;18.30;99.90;;;;;;5031940;28;20056;-64
2023/09/06 03:43:30;;;;;;;;;;;18.30;99.90;;;;;;5049641;28;20045;-64
2023/09/06 03:46:14;;;;;;;8.70;6.97;;;18.30;99.90;;;;;;5050607;28;20280;-64
2023/09/06 03:49:05;;;;;;;8.93;6.90;;;18.10;99.90;;;;;;5049304;28;20477;-63
2023/09/06 03:51:45;;;;;;;7.32;6.63;;;18.10;99.90;;;;;;5048897;28;20388;-64
2023/09/06 03:54:34;;;;;;;8.20;6.93;;;18.10;99.90;;;;;;5043457;28;20063;-64
2023/09/06 03:57:14;;;;;;;7.90;7.10;;;18.10;99.90;;;;;;5049381;28;20444;-64
2023/09/06 04:00:19;;;;;;;7.28;6.47;;;18.00;99.90;;;;;;5048786;28;20056;-64
2023/09/06 04:02:59;;;;;;;7.90;7.07;;;18.10;99.90;;;;;;5049087;28;20055;-64
2023/09/06 04:05:46;;;;;;;7.57;6.78;;;18.00;99.90;;;;;;5049149;28;20062;-64
2023/09/06 04:08:28;;;;;;;8.23;6.85;;;18.00;99.90;;;;;;5049182;28;20106;-64
2023/09/06 04:11:14;;;;;;;7.72;6.82;;;17.90;99.90;;;;;;5049051;28;20045;-64
2023/09/06 04:13:55;;;;;;;8.55;7.10;;;17.90;99.90;;;;;;5049258;28;20099;-64
2023/09/06 04:16:41;;;;;;;9.20;7.03;;;17.90;99.90;;;;;;5049083;28;20068;-64
2023/09/06 04:19:21;;;;;;;8.38;7.30;;;18.00;99.90;;;;;;5049149;28;20252;-64
2023/09/06 04:22:07;;;;;;;8.32;6.90;;;17.90;99.90;;;;;;5048928;28;20060;-63
2023/09/06 04:24:47;;;;;;;7.80;6.55;;;17.80;99.90;;;;;;5029027;28;20359;-64
2023/09/06 04:27:34;;;;;;;9.32;7.38;;;17.90;99.90;;;;;;5029333;28;20049;-63
2023/09/06 04:30:17;;;;;;;8.55;7.03;;;17.80;99.90;;;;;;5028464;28;20049;-64
2023/09/06 04:33:05;;;;;;;8.75;6.80;;;17.80;99.90;;;;;;5037803;28;20092;-64
2023/09/06 04:35:45;;;;;;;7.78;6.78;;;17.80;99.90;;;;;;5048755;28;20048;-64
2023/09/06 04:38:32;;;;;;;9.25;7.57;;;17.80;99.90;;;;;;5048480;28;20075;-64
2023/09/06 04:41:12;;;;;;;8.30;7.45;;;17.60;99.90;;;;;;5049526;28;20110;-64
2023/09/06 04:43:59;;;;;;;9.93;7.32;;;17.60;99.90;;;;;;5048803;28;20126;-64
2023/09/06 04:46:39;;;;;;;8.65;7.18;;;17.60;99.90;;;;;;5063605;28;20121;-63
2023/09/06 04:49:25;;;;;;;9.77;7.68;;;17.50;99.90;;;;;;5061965;28;20462;-64
2023/09/06 04:52:05;;;;;;;7.80;7.00;;;17.60;99.90;;;;;;5088589;28;20132;-63
2023/09/06 04:54:52;;;;;;;8.75;7.45;;;17.60;99.90;;;;;;5049069;28;20049;-63
2023/09/06 04:57:32;;;;;;;7.88;6.97;;;17.60;99.90;;;;;;5049260;28;20056;-64
2023/09/06 05:00:23;;;;;;;9.07;7.80;;;17.50;99.90;;;;;;5048041;28;20385;-64
2023/09/06 05:03:13;;;;;;;8.98;6.93;;;17.50;99.90;;;;;;5064714;28;20048;-64
2023/09/06 05:06:00;;;;;;;8.75;7.05;;;17.40;99.90;;;;;;5089058;28;20040;-64
2023/09/06 05:08:40;;;;;;;7.85;6.90;;;17.50;99.90;;;;;;5088812;28;20085;-63
2023/09/06 05:11:26;;;;;;;9.27;7.32;;;17.50;99.90;;;;;;5088970;28;20063;-63
2023/09/06 05:14:06;;;;;;;8.23;7.43;;;17.50;99.90;;;;;;5072102;28;20060;-64
2023/09/06 05:16:52;;;;;;;8.50;7.60;;;17.40;99.90;;;;;;5068584;28;20040;-64
2023/09/06 05:19:32;;;;;;;7.47;6.75;;;17.50;99.90;;;;;;5072853;28;20128;-64
2023/09/06 05:22:18;;;;;;;8.27;7.35;;;17.40;99.90;;;;;;5073147;28;20059;-64
2023/09/06 05:24:58;;;;;;;10.98;7.82;;;17.40;99.90;;;;;;5072448;28;20075;-63
2023/09/06 05:27:44;;;;;;;10.77;8.02;;;17.40;99.90;;;;;;5073035;28;20056;-64
2023/09/06 05:30:24;;;;;;;9.77;7.00;;;17.50;99.90;;;;;;5071934;28;20561;-63
2023/09/06 05:33:11;;;;;;;10.73;7.53;;;17.50;99.90;;;;;;5080831;28;20070;-64
2023/09/06 05:35:51;;;;;;;9.55;7.18;;;17.50;99.90;;;;;;5092571;28;20162;-64
2023/09/06 05:38:37;;;;;;;7.80;6.95;;;17.40;99.90;;;;;;5092320;28;20059;-64
2023/09/06 05:41:17;;;;;;;8.25;7.45;;;17.50;99.90;;;;;;5092155;28;20388;-64
2023/09/06 05:44:03;;;;;;;8.50;7.00;;;17.50;99.90;;;;;;5076802;28;20058;-63
2023/09/06 05:46:43;;;;;;;7.95;7.15;;;18.20;99.90;;;;;;5055708;28;20060;-63
2023/09/06 05:49:29;;;;;;;9.68;7.20;;;19.00;99.90;;;;;;5071852;28;20056;-65
2023/09/06 05:52:09;;;;;;;7.78;6.97;;;20.00;99.90;;;;;;5071872;28;20045;-65
2023/09/06 05:54:55;;;;;;;9.38;6.63;;;20.60;99.90;;;;;;5071955;28;20170;-64
2023/09/06 05:57:35;;;;;;;7.95;6.63;;;21.20;99.90;;;;;;5072097;28;20128;-64
2023/09/06 06:00:22;;;;;;;7.75;6.68;;;21.60;99.90;;;;;;5071903;28;20075;-64
2023/09/06 06:03:02;;;;;;;7.82;6.93;;;22.10;99.90;;;;;;5071130;28;20102;-63
2023/09/06 06:05:48;;;;;;;7.40;6.10;;;22.50;99.90;;;;;;5070784;28;20059;-64
2023/09/06 06:08:28;;;;;;;7.40;6.32;;;22.70;99.90;;;;;;5070708;28;20052;-65
2023/09/06 06:11:15;;;;;;;7.57;6.22;;;23.10;99.90;;;;;;5070888;28;20040;-64
2023/09/06 06:13:54;;;;;;;7.07;5.88;;;23.20;99.90;;;;;;5070682;28;20126;-64
2023/09/06 06:16:47;;;;;;;7.53;5.57;;;23.40;99.90;;;;;;5070580;28;20473;-64
2023/09/06 06:19:33;;;;;;;9.00;6.40;;;23.50;99.90;;;;;;5070485;28;20048;-65
2023/09/06 06:22:13;;;;;;;7.82;6.03;;;23.60;99.90;;;;;;5069852;28;20118;-64
2023/09/06 06:25:02;;;;;;;7.13;5.90;;;23.80;99.90;;;;;;5067072;28;20382;-64
2023/09/06 06:27:46;;;;;;;7.43;6.03;;;23.90;99.90;;;;;;5050531;28;20060;-64
2023/09/06 06:30:32;;;;;;;8.57;5.90;;;24.00;99.90;;;;;;5049417;28;20370;-64
2023/09/06 06:33:12;;;;;;;7.35;5.82;;;24.00;99.90;;;;;;5041292;28;20052;-64
2023/09/06 06:35:58;;;;;;;9.00;6.00;;;24.10;99.90;;;;;;5070345;28;20060;-64
2023/09/06 06:38:38;;;;;;;7.45;5.75;;;24.10;99.90;;;;;;5069913;28;20499;-63
2023/09/06 06:41:25;;;;;;;6.85;5.95;;;24.10;99.90;;;;;;5070328;28;20054;-64
2023/09/06 06:44:05;;;;;;;6.68;5.93;;;23.80;99.90;;;;;;5070168;28;20044;-63
2023/09/06 06:46:58;;;;;;;6.28;5.68;;;24.00;99.90;;;;;;5070619;28;20060;-64
2023/09/06 06:49:44;;;;;;;7.38;5.47;;;23.90;99.90;;;;;;5070060;28;20044;-64
2023/09/06 06:52:24;;;;;;;6.93;5.50;;;24.00;99.90;;;;;;5067486;28;20401;-64
2023/09/06 06:55:10;;;;;;;7.53;5.75;;;24.10;99.90;;;;;;5069442;28;20052;-63
2023/09/06 06:57:50;;;;;;;6.65;5.68;;;24.20;99.90;;;;;;5070109;28;20049;-64
2023/09/06 07:00:36;;;;;;;5.97;5.30;;;24.30;99.90;;;;;;5056475;28;20060;-64
2023/09/06 07:03:16;;;;;;;6.68;5.65;;;24.20;99.90;;;;;;5069599;28;20049;-64
2023/09/06 07:06:02;;;;;;;6.90;6.18;;;24.10;99.90;;;;;;5070438;28;20040;-64
2023/09/06 07:08:42;;;;;;;7.13;5.70;;;23.80;99.90;;;;;;5070107;28;20109;-64
2023/09/06 07:11:28;;;;;;;7.85;5.90;;;23.60;99.90;;;;;;5069479;28;20457;-64
2023/09/06 07:14:08;;;;;;;8.20;5.70;;;23.30;99.90;;;;;;5069729;28;20048;-64
2023/09/06 07:16:54;;;;;;;8.20;5.63;;;23.20;99.90;;;;;;5069767;28;20063;-64
2023/09/06 07:19:34;;;;;;;6.53;5.78;;;23.20;99.90;;;;;;5069469;28;20102;-64
2023/09/06 07:22:20;;;;;;;7.82;5.40;;;23.10;99.90;;;;;;5062119;28;20053;-63
2023/09/06 07:25:00;;;;;;;5.78;5.00;;;23.20;99.90;;;;;;5069735;28;20055;-64
2023/09/06 07:27:46;;;;;;;6.80;4.95;;;23.20;99.90;;;;;;5051512;28;20461;-64
2023/09/06 07:30:26;;;;;;;6.28;4.88;;;23.30;99.90;;;;;;5069374;28;20044;-63
2023/09/06 07:33:12;;;;;;;7.00;4.75;;;23.30;99.90;;;;;;5068391;28;20052;-63
2023/09/06 07:35:52;;;;;;;9.70;5.00;;;23.40;99.90;;;;;;5069632;28;20464;-64
2023/09/06 07:38:38;;;;;;;7.93;4.70;;;23.40;99.90;;;;;;5069529;28;20041;-64
2023/09/06 07:41:20;;;;;;;7.78;4.55;;;23.50;99.90;;;;;;5069461;28;20060;-64
2023/09/06 07:44:05;;;;;;;7.38;4.85;;;23.60;99.90;;;;;;5069082;28;20055;-64
2023/09/06 07:46:48;;;;;;;7.22;4.95;;;23.70;99.90;;;;;;5069916;28;20432;-64
2023/09/06 07:49:34;;;;;;;5.95;5.00;;;23.70;99.90;;;;;;5069464;28;20055;-63
2023/09/06 07:52:14;;;;;;;5.05;4.38;;;23.80;99.90;;;;;;5068855;28;20040;-63
2023/09/06 07:55:00;;;;;;;7.30;4.68;;;23.80;99.90;;;;;;5066864;28;20057;-63
2023/09/06 07:57:40;;;;;;;6.03;4.50;;;23.80;99.90;;;;;;5069085;28;20059;-63
2023/09/06 08:00:28;;;;;;;5.50;4.60;;;23.80;99.90;;;;;;5068681;28;20422;-63
2023/09/06 08:03:08;;;;;;;5.78;4.50;;;23.90;99.90;;;;;;5068771;28;20041;-64
2023/09/06 08:05:54;;;;;;;6.78;4.82;;;23.90;99.90;;;;;;5068732;28;20382;-63
2023/09/06 08:08:34;;;;;;;6.45;4.38;;;24.10;99.90;;;;;;5068802;28;20048;-64
2023/09/06 08:11:20;;;;;;;5.28;4.35;;;24.20;99.90;;;;;;5061321;28;20045;-63
2023/09/06 08:14:00;;;;;;;6.30;4.70;;;24.20;99.90;;;;;;5068575;28;20044;-64
2023/09/06 08:16:46;;;;;;;7.45;5.10;;;24.30;99.90;;;;;;5068824;28;20067;-64
2023/09/06 08:19:26;;;;;;;6.18;4.32;;;24.30;99.90;;;;;;5068873;28;20105;-64
2023/09/06 08:22:12;;;;;;;6.75;5.10;;;24.40;99.90;;;;;;5068333;28;20361;-63
2023/09/06 08:24:52;;;;;;;5.72;4.82;;;24.40;99.90;;;;;;5045285;28;20052;-64
2023/09/06 08:27:38;;;;;;;4.97;4.05;;;24.50;99.90;;;;;;5048506;28;20063;-63
2023/09/06 08:30:20;;;;;;;6.68;5.07;;;24.60;99.90;;;;;;5048409;28;20068;-64
2023/09/06 08:33:07;;;;;;;6.22;4.15;;;24.70;99.90;;;;;;5054967;28;20063;-64
2023/09/06 08:35:46;;;;;;;6.60;4.38;;;24.80;99.90;;;;;;5068299;28;20048;-64
2023/09/06 08:38:32;;;;;;;5.45;4.35;;;24.80;99.90;;;;;;5067703;28;20041;-64
2023/09/06 08:41:12;;;;;;;6.30;4.10;;;25.00;99.90;;;;;;5067897;28;20484;-64
2023/09/06 08:44:31;;;;;;;6.18;4.65;;;25.10;99.90;;;;;;5063741;28;20049;-72
2023/09/06 08:47:13;;;;;;;;;;;25.20;99.90;;;;;;4788979;28;8044401;-63
2023/09/06 08:50:00;;;;;;;4.93;4.22;;;25.40;99.90;;;;;;5069260;28;19982;-64
2023/09/06 08:52:41;;;;;;;6.03;4.57;;;25.50;99.90;;;;;;5068114;28;20194;-63
2023/09/06 08:55:28;;;;;;;4.50;3.65;;;25.50;99.90;;;;;;5066393;28;20059;-63
2023/09/06 08:58:09;;;;;;;4.50;4.03;;;25.50;99.90;;;;;;5072873;28;20136;-63
2023/09/06 09:00:56;;;;;;;6.05;4.05;;;25.60;99.90;;;;;;5072722;28;20365;-62
2023/09/06 09:03:36;;;;;;;7.57;4.35;;;25.70;99.90;;;;;;5071950;28;20491;-63
2023/09/06 09:06:22;;;;;;;7.05;3.85;;;25.80;99.90;;;;;;5072295;28;20044;-63
2023/09/06 09:09:02;;;;;;;5.90;3.70;;;25.90;99.90;;;;;;5072357;28;20197;-64
2023/09/06 09:11:51;;;;;;;5.65;3.50;;;26.00;99.90;;;;;;5072491;28;20071;-63
2023/09/06 09:14:31;;;;;;;6.35;3.72;;;26.10;99.90;;;;;;5071426;28;20048;-64
2023/09/06 09:17:21;;;;;;;5.88;3.70;;;26.20;99.90;;;;;;5072272;28;20060;-63
2023/09/06 09:20:03;;;;;;;5.80;3.60;;;26.30;99.90;;;;;;5072348;28;20052;-64
2023/09/06 09:22:50;;;;;;;4.97;3.65;;;26.40;99.90;;;;;;5068283;28;20060;-64
2023/09/06 09:25:29;;;;;;;5.25;3.30;;;26.50;99.90;;;;;;5065503;28;20049;-63
2023/09/06 09:28:16;;;;;;;4.72;3.50;;;26.60;99.90;;;;;;5071721;28;20052;-64
2023/09/06 09:30:57;;;;;;;4.45;3.72;;;26.60;99.90;;;;;;5055367;28;20118;-63
2023/09/06 09:33:49;;;;;;;5.43;4.13;;;26.70;99.90;;;;;;5068061;28;20428;-63
2023/09/06 09:36:34;;;;;;;6.07;3.83;;;26.70;99.90;;;;;;5056921;28;20115;-63
2023/09/06 09:39:25;;;;;;;6.88;3.90;;;26.90;99.90;;;;;;5071915;28;20055;-63
2023/09/06 09:42:05;;;;;;;4.85;3.92;;;26.90;99.90;;;;;;5054563;28;20048;-64
2023/09/06 09:45:02;;;;;;;7.22;4.10;;;26.90;99.90;;;;;;5071642;28;20108;-63
2023/09/06 09:47:42;;;;;;;5.88;3.85;;;26.90;99.90;;;;;;5072838;28;20110;-65
2023/09/06 09:50:32;;;;;;;7.40;3.63;;;27.00;99.90;;;;;;5071855;28;20449;-63
2023/09/06 09:53:15;;;;;;;5.15;3.30;;;27.00;99.90;;;;;;5065068;28;20244;-64
2023/09/06 09:56:06;;;;;;;5.07;3.90;;;27.10;99.90;;;;;;5051900;28;20430;-63
2023/09/06 09:58:46;;;;;;;4.90;3.70;;;27.20;99.90;;;;;;5052218;28;20045;-63
2023/09/06 10:01:32;;;;;;;5.63;4.00;;;27.20;99.90;;;;;;5052162;28;20072;-64
2023/09/06 10:04:13;;;;;;;5.50;3.72;;;27.30;99.90;;;;;;5051272;28;20064;-64
2023/09/06 10:07:01;;;;;;;6.68;4.05;;;27.50;99.90;;;;;;5051920;28;20060;-63
2023/09/06 10:09:43;;;;;;;5.25;3.88;;;27.60;99.90;;;;;;5071820;28;20136;-64
2023/09/06 10:12:30;;;;;;;5.47;4.15;;;27.50;99.90;;;;;;5070672;28;20051;-63
2023/09/06 10:15:13;;;;;;;4.63;3.40;;;27.50;99.90;;;;;;5071702;28;20126;-63
2023/09/06 10:17:59;;;;;;;5.15;4.22;;;27.70;99.90;;;;;;5071598;28;20419;-63
2023/09/06 10:20:39;;;;;;;5.90;4.35;;;27.70;99.90;;;;;;5051325;28;20403;-63
2023/09/06 10:23:30;;;;;;;5.57;4.63;;;27.70;99.90;;;;;;5070132;28;20277;-64
2023/09/06 10:26:10;;;;;;;5.55;4.38;;;27.70;99.90;;;;;;5051403;28;20040;-63
2023/09/06 10:28:58;;;;;;;5.72;4.03;;;27.70;99.90;;;;;;5047880;28;20037;-63
2023/09/06 10:31:57;;;;;;;6.20;4.40;;;27.90;99.90;;;;;;5035844;28;20048;-63
2023/09/06 10:34:45;;;;;;;6.65;5.40;;;27.90;99.90;;;;;;5034135;28;20470;-63
2023/09/06 10:37:25;;;;;;;6.38;4.60;;;28.00;99.90;;;;;;5052245;28;20112;-64
2023/09/06 10:40:12;;;;;;;6.25;4.15;;;28.10;99.90;;;;;;5070732;28;20049;-63
2023/09/06 10:43:00;;;;;;;8.40;3.92;;;28.10;99.90;;;;;;5066139;28;20490;-64
2023/09/06 10:45:40;;;;;;;5.43;3.78;;;28.10;99.90;;;;;;5053206;28;20067;-63
2023/09/06 10:48:25;;;;;;;6.85;3.60;;;28.20;99.90;;;;;;5051224;28;20056;-63
2023/09/06 10:51:11;;;;;;;5.13;3.95;;;28.30;99.90;;;;;;5051376;28;20127;-63
2023/09/06 10:53:56;;;;;;;6.90;3.80;;;28.30;99.90;;;;;;5050800;28;20537;-63
2023/09/06 10:56:36;;;;;;;4.95;3.53;;;28.30;99.90;;;;;;5051316;28;20044;-63
2023/09/06 10:59:27;;;;;;;4.38;3.13;;;28.40;99.90;;;;;;5050828;28;20064;-63
2023/09/06 11:02:08;;;;;;;5.60;3.67;;;28.40;99.90;;;;;;5051655;28;20052;-64
2023/09/06 11:05:14;;;;;;;6.18;3.50;;;28.40;99.90;;;;;;5051186;28;20067;-63
2023/09/06 11:08:02;;;;;;;5.75;3.40;;;28.40;99.90;;;;;;5050421;28;20045;-65
2023/09/06 11:10:43;;;;;;;4.45;3.20;;;28.50;99.90;;;;;;5051080;28;20049;-64
2023/09/06 11:13:32;;;;;;;4.80;3.25;;;28.60;99.90;;;;;;5044165;28;20045;-63
2023/09/06 11:16:16;;;;;;;5.35;3.72;;;28.70;99.90;;;;;;5050254;28;20136;-63
2023/09/06 11:19:03;;;;;;;4.65;3.40;;;28.70;99.90;;;;;;5050477;28;20048;-63
2023/09/06 11:21:42;;;;;;;4.40;3.25;;;28.60;99.90;;;;;;5033711;28;20433;-62
2023/09/06 11:24:34;;;;;;;5.50;3.53;;;28.70;99.90;;;;;;5049686;28;20496;-64
2023/09/06 11:27:39;;;;;;;5.63;3.35;;;28.80;99.90;;;;;;5050398;28;20049;-64
2023/09/06 11:30:27;;;;;;;4.57;3.30;;;28.80;99.90;;;;;;5043683;28;20060;-63
2023/09/06 11:33:10;;;;;;;4.57;3.50;;;29.00;99.90;;;;;;5050192;28;20481;-63
2023/09/06 11:36:00;;;;;;;4.70;3.13;;;29.00;99.90;;;;;;5049952;28;20438;-63
2023/09/06 11:38:42;;;;;;;4.45;2.75;;;29.10;99.60;;;;;;5049718;28;20075;-63
2023/09/06 11:41:29;;;;;;;3.92;3.08;;;29.20;99.90;;;;;;5050375;28;20045;-63
2023/09/06 11:44:10;;;;;;;4.28;2.83;;;29.30;99.80;;;;;;5049863;28;20052;-64
2023/09/06 11:47:06;;;;;;;5.70;3.20;;;29.30;99.50;;;;;;5060612;28;20059;-64
2023/09/06 11:49:52;;;;;;;3.85;2.70;;;29.20;99.30;;;;;;5069700;28;20044;-63
2023/09/06 11:52:32;;;;;;;5.35;3.00;;;29.20;98.70;;;;;;5069522;28;20064;-63
2023/09/06 11:55:20;;;;;;;3.83;2.78;;;29.20;99.40;;;;;;5049803;28;20048;-63
2023/09/06 11:58:00;;;;;;;4.40;2.70;;;29.30;98.60;;;;;;5049309;28;20056;-64
2023/09/06 12:00:50;;;;;;;3.58;2.55;;;29.40;99.20;;;;;;5049601;28;20421;-63
2023/09/06 12:03:35;;;;;;;4.68;2.83;;;29.40;99.20;;;;;;5057318;28;20051;-63
2023/09/06 12:06:21;;;;;;;4.30;3.10;;;29.50;98.50;;;;;;5069735;28;20055;-65
2023/09/06 12:09:00;;;;;;;4.25;2.85;;;29.60;98.10;;;;;;5069559;28;20140;-63
2023/09/06 12:11:47;;;;;;;5.03;3.50;;;29.50;98.60;;;;;;5069355;28;20036;-62
2023/09/06 12:14:26;;;;;;;4.65;3.80;;;29.50;98.40;;;;;;5052486;28;20390;-64
2023/09/06 12:17:14;;;;;;;5.25;2.55;;;29.60;98.70;;;;;;5049257;28;20436;-62
2023/09/06 12:20:10;;;;;;;3.85;2.40;;;29.70;98.40;;;;;;5048469;28;20045;-63
2023/09/06 12:22:57;;;;;;;4.50;2.60;;;29.80;98.30;;;;;;5052653;28;20036;-63
2023/09/06 12:25:37;;;;;;;3.33;2.38;;;29.70;97.50;;;;;;5069831;28;20044;-63
2023/09/06 12:28:24;;;;;;;3.80;2.30;;;29.70;97.70;;;;;;5069205;28;20457;-63
2023/09/06 12:31:05;;;;;;;4.65;2.33;;;29.70;97.70;;;;;;5069529;28;20041;-63
2023/09/06 12:33:52;;;;;;;4.43;2.65;;;29.80;97.70;;;;;;5058576;28;20041;-62
2023/09/06 12:36:31;;;;;;;3.90;2.55;;;29.80;97.50;;;;;;5049392;28;20041;-64
2023/09/06 12:39:18;;;;;;;3.40;2.40;;;29.70;97.00;;;;;;5047878;28;20056;-63
2023/09/06 12:41:57;;;;;;;3.33;2.33;;;29.80;97.00;;;;;;5049826;28;20157;-62
2023/09/06 12:44:44;;;;;;;4.40;2.20;;;29.90;96.70;;;;;;5066925;28;20044;-62
2023/09/06 12:47:23;;;;;;;3.03;2.15;;;30.00;96.00;;;;;;5046055;28;20107;-63
2023/09/06 12:50:10;;;;;;;3.00;2.10;;;30.00;96.30;;;;;;5049579;28;20338;-62
2023/09/06 12:52:49;;;;;;;4.15;2.40;;;30.00;96.40;;;;;;5049587;28;20258;-63
2023/09/06 12:55:36;;;;;;;4.45;2.20;;;30.00;96.20;;;;;;5050258;28;20049;-62
2023/09/06 12:58:17;;;;;;;5.05;2.42;;;30.00;96.10;;;;;;5049120;28;20048;-63
2023/09/06 13:01:08;;;;;;;4.05;2.40;;;30.00;96.10;;;;;;5049549;28;20049;-63
2023/09/06 13:03:48;;;;;;;3.47;2.35;;;30.10;96.40;;;;;;5049363;28;20056;-63
2023/09/06 13:06:34;;;;;;;4.65;2.25;;;30.10;96.40;;;;;;5048993;28;20119;-63
2023/09/06 13:09:13;;;;;;;3.08;2.30;;;30.10;96.20;;;;;;5050582;28;20500;-63
2023/09/06 13:12:00;;;;;;;5.88;2.47;;;30.10;96.80;;;;;;5049589;28;20041;-64
2023/09/06 13:14:39;;;;;;;4.07;2.47;;;30.10;96.30;;;;;;5049100;28;20049;-64
2023/09/06 13:17:26;;;;;;;4.10;2.22;;;30.10;96.30;;;;;;5048739;28;20469;-64
2023/09/06 13:20:07;;;;;;;5.70;2.70;;;30.20;96.80;;;;;;5050706;28;20048;-63
2023/09/06 13:22:53;;;;;;;3.80;2.30;;;30.20;96.90;;;;;;5048830;28;20053;-63
2023/09/06 13:25:32;;;;;;;3.88;2.40;;;30.20;97.10;;;;;;5048905;28;20370;-64
2023/09/06 13:28:19;;;;;;;3.55;2.40;;;30.20;96.80;;;;;;5048171;28;20406;-64
2023/09/06 13:30:58;;;;;;;3.78;2.28;;;30.30;96.70;;;;;;5031345;28;20060;-64
2023/09/06 13:33:45;;;;;;;5.00;2.72;;;30.30;96.50;;;;;;5048550;28;20049;-65
2023/09/06 13:36:24;;;;;;;5.28;2.63;;;30.30;96.70;;;;;;5048952;28;20048;-64
2023/09/06 13:39:11;;;;;;;4.57;2.72;;;30.40;97.10;;;;;;5051071;28;20060;-63
2023/09/06 13:41:50;;;;;;;4.70;2.40;;;30.40;96.80;;;;;;5053106;28;20048;-63
2023/09/06 13:44:37;;;;;;;4.05;2.25;;;30.40;96.80;;;;;;5052510;28;20481;-64
2023/09/06 13:47:17;;;;;;;4.45;2.40;;;30.50;96.80;;;;;;5064122;28;20375;-65
2023/09/06 13:50:04;;;;;;;3.33;2.30;;;30.40;96.90;;;;;;5072494;28;20052;-64
2023/09/06 13:52:43;;;;;;;3.08;2.20;;;30.40;96.90;;;;;;5072238;28;20098;-63
2023/09/06 13:55:31;;;;;;;4.22;2.35;;;30.40;97.00;;;;;;5072528;28;20350;-63
2023/09/06 13:58:11;;;;;;;3.50;2.30;;;30.40;97.10;;;;;;5071373;28;20052;-63
2023/09/06 14:00:59;;;;;;;4.18;2.35;;;30.40;97.10;;;;;;5071959;28;20418;-64
2023/09/06 14:03:39;;;;;;;3.25;2.40;;;30.40;97.40;;;;;;5071673;28;20052;-64
2023/09/06 14:06:26;;;;;;;3.45;2.35;;;30.50;97.20;;;;;;5065214;28;20044;-63
2023/09/06 14:09:08;;;;;;;4.65;2.60;;;30.50;97.30;;;;;;5071881;28;20044;-63
2023/09/06 14:11:54;;;;;;;3.30;2.60;;;30.50;97.40;;;;;;5071986;28;20048;-62
2023/09/06 14:14:33;;;;;;;3.30;2.20;;;30.50;97.00;;;;;;5071422;28;20628;-63
2023/09/06 14:17:20;;;;;;;4.25;2.40;;;30.50;97.10;;;;;;5071633;28;20059;-63